createdAt,value
2018-01-23T00:01:58.689Z,49.90
2018-01-23T00:04:27.494Z,49.80
2018-01-23T00:06:55.494Z,49.80
2018-01-23T00:09:23.536Z,49.80
2018-01-23T00:11:51.544Z,49.90
2018-01-23T00:14:19.574Z,49.90
2018-01-23T00:16:48.488Z,49.90
2018-01-23T00:19:16.541Z,49.90
2018-01-23T00:21:44.567Z,49.80
2018-01-23T00:24:12.595Z,49.90
2018-01-23T00:26:40.611Z,49.90
2018-01-23T00:29:08.658Z,49.80
2018-01-23T00:31:36.655Z,49.90
2018-01-23T00:34:05.414Z,49.90
2018-01-23T00:36:33.455Z,49.90
2018-01-23T00:39:01.492Z,49.90
2018-01-23T00:41:30.418Z,49.80
2018-01-23T00:43:58.431Z,49.90
2018-01-23T00:46:26.429Z,49.80
2018-01-23T00:48:54.465Z,49.80
2018-01-23T00:51:22.466Z,49.90
2018-01-23T00:53:51.279Z,49.80
2018-01-23T00:56:19.293Z,49.90
2018-01-23T00:58:47.310Z,49.90
2018-01-23T01:01:15.355Z,49.90
2018-01-23T01:03:44.151Z,49.80
2018-01-23T01:06:12.933Z,49.80
2018-01-23T01:08:41.745Z,49.80
2018-01-23T01:11:09.738Z,49.80
2018-01-23T01:13:37.778Z,49.80
2018-01-23T01:16:05.811Z,49.80
2018-01-23T01:18:33.829Z,49.80
2018-01-23T01:21:01.819Z,49.80
2018-01-23T01:23:29.826Z,49.80
2018-01-23T01:25:57.822Z,49.80
2018-01-23T01:28:25.855Z,49.40
2018-01-23T01:30:53.888Z,49.80
2018-01-23T01:33:21.909Z,49.80
2018-01-23T01:35:49.909Z,49.80
2018-01-23T01:38:17.945Z,49.90
2018-01-23T01:40:46.720Z,49.80
2018-01-23T01:43:14.733Z,49.80
2018-01-23T01:45:42.750Z,49.80
2018-01-23T01:48:10.779Z,49.80
2018-01-23T01:50:38.787Z,49.80
2018-01-23T01:53:06.818Z,50.40
2018-01-23T01:55:34.867Z,49.80
2018-01-23T01:58:03.705Z,49.80
2018-01-23T02:00:31.720Z,49.80
2018-01-23T02:03:00.490Z,49.80
2018-01-23T02:05:28.548Z,49.80
2018-01-23T02:07:56.576Z,49.80
2018-01-23T02:10:24.582Z,49.80
2018-01-23T02:12:52.579Z,49.80
2018-01-23T02:15:20.610Z,49.80
2018-01-23T02:17:48.605Z,49.70
2018-01-23T02:20:16.642Z,49.80
2018-01-23T02:22:44.675Z,49.80
2018-01-23T02:25:13.459Z,49.90
2018-01-23T02:27:42.290Z,49.80
2018-01-23T02:30:10.326Z,49.80
2018-01-23T02:32:39.121Z,49.80
2018-01-23T02:35:07.130Z,49.80
2018-01-23T02:37:35.174Z,49.80
2018-01-23T02:40:03.217Z,49.80
2018-01-23T02:42:32.030Z,49.80
2018-01-23T02:45:00.036Z,49.80
2018-01-23T02:47:28.079Z,49.80
2018-01-23T02:49:56.112Z,49.80
2018-01-23T02:52:24.886Z,49.80
2018-01-23T02:54:52.961Z,49.80
2018-01-23T02:57:20.998Z,49.80
2018-01-23T02:59:49.009Z,50.40
2018-01-23T03:02:17.819Z,49.90
2018-01-23T03:04:45.830Z,49.90
2018-01-23T03:07:13.885Z,49.80
2018-01-23T03:09:41.883Z,49.90
2018-01-23T03:12:09.915Z,49.80
2018-01-23T03:14:37.924Z,49.90
2018-01-23T03:17:05.940Z,49.90
2018-01-23T03:19:33.978Z,49.80
2018-01-23T03:22:01.998Z,49.80
2018-01-23T03:24:30.030Z,49.40
2018-01-23T03:26:58.806Z,49.80
2018-01-23T03:29:26.815Z,49.80
2018-01-23T03:31:54.835Z,49.80
2018-01-23T03:34:22.859Z,49.80
2018-01-23T03:36:50.859Z,49.80
2018-01-23T03:39:18.941Z,49.70
2018-01-23T03:41:46.989Z,49.70
2018-01-23T03:44:15.022Z,49.80
2018-01-23T03:46:43.791Z,49.80
2018-01-23T03:49:12.590Z,49.80
2018-01-23T03:51:41.402Z,49.80
2018-01-23T03:54:09.391Z,49.80
2018-01-23T03:56:37.403Z,49.80
2018-01-23T03:59:05.443Z,49.70
2018-01-23T04:01:34.224Z,49.70
2018-01-23T04:04:02.266Z,49.70
2018-01-23T04:06:30.285Z,49.70
2018-01-23T04:08:58.310Z,49.70
2018-01-23T04:11:26.310Z,49.70
2018-01-23T04:13:54.330Z,49.70
2018-01-23T04:16:23.100Z,49.70
2018-01-23T04:18:51.209Z,49.70
2018-01-23T04:21:19.248Z,49.70
2018-01-23T04:23:48.023Z,49.70
2018-01-23T04:26:16.039Z,49.70
2018-01-23T04:28:44.064Z,49.90
2018-01-23T04:31:12.098Z,49.70
2018-01-23T04:33:40.120Z,49.70
2018-01-23T04:36:08.964Z,49.70
2018-01-23T04:38:36.986Z,49.70
2018-01-23T04:41:05.066Z,49.70
2018-01-23T04:43:33.079Z,49.70
2018-01-23T04:46:01.083Z,49.70
2018-01-23T04:48:29.892Z,49.70
2018-01-23T04:50:57.906Z,49.60
2018-01-23T04:53:25.932Z,49.70
2018-01-23T04:55:53.943Z,49.70
2018-01-23T04:58:22.726Z,49.70
2018-01-23T05:00:50.762Z,49.70
2018-01-23T05:03:18.800Z,49.70
2018-01-23T05:05:46.813Z,49.60
2018-01-23T05:08:14.825Z,49.70
2018-01-23T05:10:42.865Z,49.60
2018-01-23T05:13:10.894Z,49.70
2018-01-23T05:15:39.680Z,49.60
2018-01-23T05:18:07.674Z,49.60
2018-01-23T05:20:35.681Z,49.60
2018-01-23T05:23:03.682Z,49.60
2018-01-23T05:25:31.698Z,49.60
2018-01-23T05:27:59.744Z,49.60
2018-01-23T05:30:27.750Z,49.60
2018-01-23T05:32:55.764Z,49.60
2018-01-23T05:35:24.542Z,49.60
2018-01-23T05:37:52.546Z,49.50
2018-01-23T05:40:20.575Z,49.50
2018-01-23T05:42:48.659Z,49.50
2018-01-23T05:45:16.689Z,49.50
2018-01-23T05:47:44.695Z,49.50
2018-01-23T05:50:12.701Z,49.50
2018-01-23T05:52:40.730Z,49.70
2018-01-23T05:55:08.765Z,49.40
2018-01-23T05:57:36.809Z,49.40
2018-01-23T06:00:04.898Z,49.40
2018-01-23T06:02:32.965Z,49.40
2018-01-23T06:05:00.965Z,49.40
2018-01-23T06:07:29.008Z,49.40
2018-01-23T06:09:57.080Z,49.40
2018-01-23T06:12:25.110Z,49.40
2018-01-23T06:14:53.898Z,49.40
2018-01-23T06:17:22.659Z,49.40
2018-01-23T06:19:50.691Z,50.10
2018-01-23T06:22:18.709Z,49.50
2018-01-23T06:24:46.734Z,49.50
2018-01-23T06:27:14.765Z,49.50
2018-01-23T06:29:43.558Z,49.50
2018-01-23T06:32:12.341Z,49.60
2018-01-23T06:34:41.216Z,49.60
2018-01-23T06:37:09.254Z,49.60
2018-01-23T06:39:37.263Z,49.80
2018-01-23T06:42:05.279Z,49.60
2018-01-23T06:44:33.284Z,49.60
2018-01-23T06:47:01.263Z,49.60
2018-01-23T06:49:29.306Z,49.60
2018-01-23T06:51:57.326Z,49.50
2018-01-23T06:54:26.180Z,49.60
2018-01-23T06:56:54.220Z,49.50
2018-01-23T06:59:22.233Z,49.60
2018-01-23T07:01:50.250Z,49.60
2018-01-23T07:04:18.308Z,49.60
2018-01-23T07:06:46.353Z,49.60
2018-01-23T07:09:14.366Z,49.60
2018-01-23T07:11:42.418Z,49.60
2018-01-23T07:14:10.422Z,49.60
2018-01-23T07:16:38.459Z,49.60
2018-01-23T07:19:06.535Z,49.60
2018-01-23T07:21:34.597Z,49.60
2018-01-23T07:24:02.637Z,49.70
2018-01-23T07:26:30.747Z,49.70
2018-01-23T07:28:58.750Z,49.70
2018-01-23T07:31:26.848Z,49.70
2018-01-23T07:33:54.889Z,49.70
2018-01-23T07:36:22.914Z,49.70
2018-01-23T07:38:51.681Z,49.80
2018-01-23T07:41:19.715Z,49.80
2018-01-23T07:43:47.744Z,49.90
2018-01-23T07:46:15.791Z,49.90
2018-01-23T07:48:43.841Z,49.90
2018-01-23T07:51:11.838Z,49.50
2018-01-23T07:53:40.631Z,50.00
2018-01-23T07:56:09.404Z,50.00
2018-01-23T07:58:37.425Z,50.00
2018-01-23T08:01:05.468Z,50.00
2018-01-23T08:03:33.498Z,50.10
2018-01-23T08:06:01.534Z,50.10
2018-01-23T08:08:29.601Z,50.10
2018-01-23T08:10:57.606Z,50.10
2018-01-23T08:13:25.641Z,50.10
2018-01-23T08:15:53.718Z,50.20
2018-01-23T08:18:21.720Z,50.20
2018-01-23T08:20:49.727Z,50.30
2018-01-23T08:23:18.527Z,50.30
2018-01-23T08:25:46.608Z,50.30
2018-01-23T08:28:14.632Z,50.30
2018-01-23T08:30:42.658Z,50.30
2018-01-23T08:33:10.701Z,50.30
2018-01-23T08:35:39.496Z,50.40
2018-01-23T08:38:07.521Z,50.40
2018-01-23T08:40:35.545Z,50.40
2018-01-23T08:43:03.545Z,50.40
